Time;durP1;ratioP1;P1;durP2;ratioP2;P2;SDS_P1;SDS_P2;PMS_P1;PMS_P2;Temp;Humidity;BMP_temperature;BMP_pressure;BME280_temperature;BME280_humidity;BME280_pressure;Samples;Min_cycle;Max_cycle;Signal;HPM_P1;HPM_P2
2023/06/24 00:02:18;;;;;;;3.97;3.53;;;;;19.40;99440.00;;;;5075316;28;20508;-62
2023/06/24 00:04:45;;;;;;;4.45;3.35;;;;;19.30;99436.00;;;;5074670;28;20141;-61
2023/06/24 00:07:12;;;;;;;5.63;3.47;;;;;19.30;99438.00;;;;5056690;28;20052;-62
2023/06/24 00:09:39;;;;;;;5.90;4.15;;;;;19.40;99443.00;;;;5074182;28;20040;-62
2023/06/24 00:12:06;;;;;;;3.75;3.45;;;;;19.40;99442.00;;;;5073304;28;20485;-60
2023/06/24 00:14:33;;;;;;;5.68;4.15;;;;;19.30;99444.00;;;;5074351;28;20124;-61
2023/06/24 00:16:59;;;;;;;4.45;3.80;;;;;19.20;99440.00;;;;5072872;28;20040;-61
2023/06/24 00:19:26;;;;;;;4.38;3.75;;;;;19.10;99448.00;;;;5073978;28;20127;-61
2023/06/24 00:21:54;;;;;;;5.57;3.90;;;;;19.10;99441.00;;;;5074101;28;20059;-61
2023/06/24 00:24:25;;;;;;;5.45;3.92;;;;;19.10;99444.00;;;;5072771;28;20037;-61
2023/06/24 00:26:53;;;;;;;4.97;3.88;;;;;19.10;99437.00;;;;5074166;28;20045;-60
2023/06/24 00:29:19;;;;;;;5.78;4.07;;;;;19.10;99440.00;;;;5073999;28;20063;-61
2023/06/24 00:31:46;;;;;;;6.07;3.55;;;;;19.20;99437.00;;;;5072825;28;20074;-61
2023/06/24 00:34:14;;;;;;;4.28;3.88;;;;;19.00;99433.00;;;;5073941;28;20068;-61
2023/06/24 00:36:40;;;;;;;4.30;3.90;;;;;19.00;99439.00;;;;5072588;28;20498;-61
2023/06/24 00:39:07;;;;;;;4.93;4.22;;;;;19.00;99438.00;;;;5072257;28;20520;-61
2023/06/24 00:41:34;;;;;;;5.68;4.22;;;;;19.10;99437.00;;;;5072600;28;20048;-60
2023/06/24 00:44:02;;;;;;;5.53;4.18;;;;;19.00;99443.00;;;;5073678;28;20094;-61
2023/06/24 00:46:33;;;;;;;4.45;4.03;;;;;19.00;99437.00;;;;5055999;28;20052;-61
2023/06/24 00:49:02;;;;;;;4.95;4.30;;;;;18.90;99441.00;;;;5073580;28;20512;-64
2023/06/24 00:51:31;;;;;;;4.78;4.28;;;;;18.80;99436.00;;;;5073616;28;20516;-63
2023/06/24 00:53:58;;;;;;;5.82;4.38;;;;;18.70;99437.00;;;;5073273;28;20036;-64
2023/06/24 00:56:31;;;;;;;5.30;3.92;;;;;18.60;99431.00;;;;5072344;28;20052;-62
2023/06/24 00:59:02;;;;;;;5.95;4.35;;;;;18.50;99440.00;;;;5073333;28;20040;-61
2023/06/24 01:01:35;;;;;;;4.45;3.83;;;;;18.40;99441.00;;;;5071130;28;20128;-63
2023/06/24 01:04:03;;;;;;;5.20;4.05;;;;;18.40;99441.00;;;;5072297;28;20079;-64
2023/06/24 01:06:30;;;;;;;5.72;4.35;;;;;18.40;99441.00;;;;5073467;28;20041;-62
2023/06/24 01:09:02;;;;;;;4.47;3.92;;;;;18.40;99444.00;;;;5071874;28;20045;-61
2023/06/24 01:11:30;;;;;;;4.38;3.97;;;;;18.20;99448.00;;;;5072414;28;20040;-62
2023/06/24 01:13:57;;;;;;;4.15;3.75;;;;;18.20;99439.00;;;;5072484;28;20222;-63
2023/06/24 01:16:45;;;;;;;5.03;3.78;;;;;18.30;99442.00;;;;5072020;28;20075;-61
2023/06/24 01:19:24;;;;;;;4.07;3.67;;;;;18.30;99443.00;;;;5071802;28;20105;-61
2023/06/24 01:21:56;;;;;;;4.07;3.53;;;;;18.40;99440.00;;;;5072136;28;20457;-64
2023/06/24 01:24:43;;;;;;;4.00;3.58;;;;;18.40;99441.00;;;;5073897;28;20555;-62
2023/06/24 01:27:32;;;;;;;5.18;4.00;;;;;18.30;99440.00;;;;5073005;28;20048;-64
2023/06/24 01:30:08;;;;;;;4.00;3.30;;;;;18.20;99457.00;;;;5072096;28;20049;-60
2023/06/24 01:32:44;;;;;;;3.97;3.35;;;;;18.20;99447.00;;;;5071923;28;20074;-60
2023/06/24 01:35:20;;;;;;;4.03;3.67;;;;;18.20;99452.00;;;;5071891;28;20397;-61
2023/06/24 01:37:54;;;;;;;4.18;3.75;;;;;18.20;99451.00;;;;5072928;28;20493;-61
2023/06/24 01:40:31;;;;;;;4.53;4.07;;;;;18.10;99450.00;;;;5072828;28;20048;-62
2023/06/24 01:42:59;;;;;;;4.20;3.70;;;;;18.00;99448.00;;;;5072746;28;20045;-61
2023/06/24 01:45:29;;;;;;;4.28;3.88;;;;;17.90;99447.00;;;;5071400;28;20700;-62
2023/06/24 01:48:07;;;;;;;4.30;3.70;;;;;17.80;99454.00;;;;5071141;28;20090;-62
2023/06/24 01:50:35;;;;;;;5.50;3.97;;;;;17.70;99447.00;;;;5072164;28;20123;-63
2023/06/24 01:53:08;;;;;;;5.05;3.80;;;;;17.80;99449.00;;;;5072481;28;20622;-61
2023/06/24 01:55:38;;;;;;;5.57;3.92;;;;;17.80;99453.00;;;;5072322;28;20051;-60
2023/06/24 01:58:07;;;;;;;6.22;4.10;;;;;17.80;99452.00;;;;5071145;28;20135;-60
2023/06/24 02:00:35;;;;;;;5.38;3.95;;;;;17.90;99451.00;;;;5072046;28;20033;-61
2023/06/24 02:03:04;;;;;;;4.53;3.75;;;;;17.90;99451.00;;;;5072250;28;20048;-62
2023/06/24 02:05:32;;;;;;;4.45;4.05;;;;;17.80;99451.00;;;;5072390;28;20079;-62
2023/06/24 02:08:01;;;;;;;5.25;4.00;;;;;17.60;99447.00;;;;5072611;28;20094;-62
2023/06/24 02:10:29;;;;;;;4.00;3.60;;;;;17.50;99447.00;;;;5072371;28;20416;-61
2023/06/24 02:12:56;;;;;;;4.65;3.90;;;;;17.50;99443.00;;;;5070832;28;20076;-62
2023/06/24 02:15:25;;;;;;;4.60;4.20;;;;;17.40;99446.00;;;;5071083;28;20068;-62
2023/06/24 02:17:56;;;;;;;6.10;3.85;;;;;17.50;99441.00;;;;5072824;28;20037;-61
2023/06/24 02:20:26;;;;;;;4.90;3.85;;;;;17.50;99440.00;;;;5070971;28;20051;-62
2023/06/24 02:22:54;;;;;;;6.72;3.85;;;;;17.60;99444.00;;;;5072774;28;20060;-61
2023/06/24 02:25:22;;;;;;;4.85;4.35;;;;;17.40;99443.00;;;;5081859;28;20040;-61
2023/06/24 02:27:49;;;;;;;4.85;4.35;;;;;17.30;99432.00;;;;5081549;28;20040;-61
2023/06/24 02:30:16;;;;;;;5.32;4.10;;;;;17.20;99440.00;;;;5071579;28;20445;-61
2023/06/24 02:32:43;;;;;;;4.50;4.10;;;;;17.20;99434.00;;;;5070514;28;20087;-61
2023/06/24 02:35:10;;;;;;;5.30;3.63;;;;;17.20;99438.00;;;;5070756;28;20148;-61
2023/06/24 02:37:37;;;;;;;4.32;3.92;;;;;17.20;99435.00;;;;5071957;28;20432;-61
2023/06/24 02:40:07;;;;;;;4.47;4.07;;;;;17.10;99433.00;;;;5054353;28;20041;-61
2023/06/24 02:42:34;;;;;;;5.38;3.92;;;;;17.10;99432.00;;;;5072625;28;20079;-62
2023/06/24 02:45:01;;;;;;;4.35;3.85;;;;;17.10;99437.00;;;;5070713;28;20147;-62
2023/06/24 02:47:28;;;;;;;6.10;4.90;;;;;17.10;99428.00;;;;5070365;28;20110;-62
2023/06/24 02:49:57;;;;;;;5.45;4.43;;;;;17.10;99436.00;;;;5070158;28;20051;-61
2023/06/24 02:52:28;;;;;;;6.53;5.63;;;;;17.10;99444.00;;;;5070443;28;20155;-61
2023/06/24 02:54:58;;;;;;;5.47;4.45;;;;;17.10;99451.00;;;;5070533;28;20124;-62
2023/06/24 02:57:28;;;;;;;4.57;4.10;;;;;17.20;99449.00;;;;5071596;28;20036;-62
2023/06/24 03:00:18;;;;;;;5.05;4.43;;;;;17.20;99439.00;;;;5070379;28;20083;-61
2023/06/24 03:03:04;;;;;;;5.47;4.13;;;;;17.20;99440.00;;;;5072080;28;20075;-64
2023/06/24 03:05:35;;;;;;;4.78;3.83;;;;;17.30;99438.00;;;;5070647;28;20040;-61
2023/06/24 03:08:05;;;;;;;5.30;4.00;;;;;17.40;99445.00;;;;5070504;28;20059;-62
2023/06/24 03:10:36;;;;;;;4.28;3.88;;;;;17.50;99442.00;;;;5070094;28;20067;-62
2023/06/24 03:13:05;;;;;;;6.32;4.00;;;;;17.40;99446.00;;;;5070486;28;20159;-62
2023/06/24 03:15:41;;;;;;;5.30;4.47;;;;;17.40;99440.00;;;;5070391;28;20068;-61
2023/06/24 03:18:08;;;;;;;5.18;4.18;;;;;17.30;99442.00;;;;5071688;28;20036;-61
2023/06/24 03:20:38;;;;;;;4.20;3.80;;;;;17.20;99444.00;;;;5070668;28;20397;-62
2023/06/24 03:23:09;;;;;;;5.85;4.60;;;;;17.20;99441.00;;;;5070537;28;20099;-62
2023/06/24 03:25:37;;;;;;;4.50;4.10;;;;;17.10;99445.00;;;;5072109;28;20045;-61
2023/06/24 03:28:07;;;;;;;4.88;4.10;;;;;17.00;99444.00;;;;5073759;28;20455;-62
2023/06/24 03:30:38;;;;;;;6.20;3.88;;;;;17.10;99438.00;;;;5057761;28;20049;-62
2023/06/24 03:33:05;;;;;;;5.50;4.60;;;;;17.10;99437.00;;;;5073792;28;20528;-62
2023/06/24 03:35:32;;;;;;;6.68;3.80;;;;;17.10;99447.00;;;;5057464;28;20140;-61
2023/06/24 03:38:03;;;;;;;4.47;3.92;;;;;17.20;99453.00;;;;5073724;28;20048;-62
2023/06/24 03:40:32;;;;;;;4.53;4.07;;;;;17.20;99444.00;;;;5073976;28;20386;-62
2023/06/24 03:42:58;;;;;;;4.93;4.20;;;;;17.10;99452.00;;;;5075220;28;20048;-61
2023/06/24 03:45:25;;;;;;;5.32;4.10;;;;;17.10;99448.00;;;;5073672;28;20052;-62
2023/06/24 03:47:52;;;;;;;5.15;3.95;;;;;17.10;99447.00;;;;5073386;28;20491;-61
2023/06/24 03:50:19;;;;;;;4.40;3.92;;;;;17.10;99451.00;;;;5073615;28;20048;-61
2023/06/24 03:52:45;;;;;;;4.38;3.97;;;;;17.00;99444.00;;;;5073529;28;20064;-62
2023/06/24 03:55:12;;;;;;;10.93;7.40;;;;;17.10;99447.00;;;;5057263;28;20044;-61
2023/06/24 03:57:39;;;;;;;6.13;4.80;;;;;17.20;99436.00;;;;5075459;28;20044;-62
2023/06/24 04:00:15;;;;;;;5.85;4.90;;;;;17.20;99442.00;;;;5057806;28;20049;-61
2023/06/24 04:02:45;;;;;;;7.82;4.65;;;;;17.20;99444.00;;;;5074589;28;20080;-61
2023/06/24 04:05:12;;;;;;;5.50;5.00;;;;;17.30;99437.00;;;;5073427;28;20040;-60
2023/06/24 04:07:39;;;;;;;5.95;4.30;;;;;17.30;99442.00;;;;5074432;28;20041;-61
2023/06/24 04:10:09;;;;;;;3.88;3.58;;;;;17.30;99448.00;;;;5072978;28;20489;-62
2023/06/24 04:12:35;;;;;;;4.63;3.80;;;;;17.40;99459.00;;;;5073555;28;20052;-62
2023/06/24 04:15:03;;;;;;;5.03;4.43;;;;;17.40;99459.00;;;;5057378;28;20048;-62
2023/06/24 04:17:32;;;;;;;4.60;4.20;;;;;17.40;99456.00;;;;5057119;28;20524;-61
2023/06/24 04:19:59;;;;;;;6.32;3.97;;;;;17.50;99454.00;;;;5073398;28;20044;-62
2023/06/24 04:22:26;;;;;;;5.00;4.35;;;;;17.60;99459.00;;;;5074482;28;20044;-62
2023/06/24 04:24:57;;;;;;;4.63;4.20;;;;;17.80;99465.00;;;;5075264;28;20029;-62
2023/06/24 04:27:24;;;;;;;6.22;4.53;;;;;17.90;99467.00;;;;5074780;28;20048;-62
2023/06/24 04:29:50;;;;;;;5.07;4.55;;;;;18.00;99466.00;;;;5074793;28;20041;-62
2023/06/24 04:32:17;;;;;;;4.30;3.90;;;;;18.10;99471.00;;;;5075238;28;20041;-61
2023/06/24 04:34:44;;;;;;;7.50;5.28;;;;;18.20;99469.00;;;;5058143;28;20106;-62
2023/06/24 04:37:11;;;;;;;5.95;4.15;;;;;18.30;99474.00;;;;5073684;28;20048;-63
2023/06/24 04:39:38;;;;;;;4.40;4.00;;;;;18.40;99473.00;;;;5074153;28;20049;-62
2023/06/24 04:42:05;;;;;;;6.15;4.45;;;;;18.50;99472.00;;;;5074211;28;20044;-62
2023/06/24 04:44:32;;;;;;;4.40;4.00;;;;;18.30;99472.00;;;;5057499;28;20053;-62
2023/06/24 04:46:59;;;;;;;4.95;4.43;;;;;18.20;99472.00;;;;5075154;28;20044;-62
2023/06/24 04:49:25;;;;;;;6.85;4.18;;;;;18.20;99468.00;;;;5074876;28;20041;-61
2023/06/24 04:51:52;;;;;;;5.47;4.22;;;;;18.20;99472.00;;;;5075107;28;20075;-63
2023/06/24 04:54:18;;;;;;;5.85;4.57;;;;;18.30;99476.00;;;;5074842;28;20109;-63
2023/06/24 04:56:48;;;;;;;5.57;4.97;;;;;18.40;99473.00;;;;5073512;28;20054;-62
2023/06/24 04:59:15;;;;;;;11.25;9.23;;;;;18.50;99476.00;;;;5073165;28;20144;-61
2023/06/24 05:01:42;;;;;;;8.52;7.28;;;;;18.50;99472.00;;;;5073795;28;20040;-61
2023/06/24 05:04:08;;;;;;;8.65;6.47;;;;;18.50;99472.00;;;;5074425;28;20045;-62
2023/06/24 05:06:35;;;;;;;7.65;6.30;;;;;18.50;99475.00;;;;5074333;28;20037;-62
2023/06/24 05:09:04;;;;;;;5.53;4.43;;;;;18.40;99467.00;;;;5074262;28;20040;-61
2023/06/24 05:11:34;;;;;;;6.25;4.70;;;;;18.50;99472.00;;;;5074158;28;20115;-61
2023/06/24 05:14:00;;;;;;;5.93;4.60;;;;;18.50;99472.00;;;;5074777;28;20128;-61
2023/06/24 05:16:27;;;;;;;8.30;7.18;;;;;18.60;99478.00;;;;5073977;28;20401;-62
2023/06/24 05:18:53;;;;;;;10.43;8.68;;;;;18.70;99479.00;;;;5076232;28;20041;-62
2023/06/24 05:21:20;;;;;;;11.70;10.10;;;;;18.80;99478.00;;;;5078166;28;20134;-62
2023/06/24 05:23:47;;;;;;;7.07;5.68;;;;;18.80;99484.00;;;;5078237;28;20044;-62
2023/06/24 05:26:14;;;;;;;7.93;5.53;;;;;18.90;99486.00;;;;5079436;28;20552;-61
2023/06/24 05:28:41;;;;;;;5.70;5.13;;;;;19.00;99483.00;;;;5077589;28;20546;-60
2023/06/24 05:31:07;;;;;;;5.40;4.90;;;;;19.10;99487.00;;;;5078031;28;20128;-62
2023/06/24 05:33:34;;;;;;;6.57;4.68;;;;;19.20;99491.00;;;;5078677;28;20070;-61
2023/06/24 05:36:01;;;;;;;5.28;4.70;;;;;19.20;99490.00;;;;5079202;28;20075;-62
2023/06/24 05:38:28;;;;;;;6.32;4.75;;;;;19.20;99487.00;;;;5078570;28;20102;-62
2023/06/24 05:40:54;;;;;;;6.20;4.30;;;;;19.20;99492.00;;;;5081323;28;20056;-62
2023/06/24 05:43:21;;;;;;;7.05;4.95;;;;;19.30;99494.00;;;;5079963;28;20051;-62
2023/06/24 05:45:48;;;;;;;6.85;5.05;;;;;19.40;99497.00;;;;5077192;28;20448;-62
2023/06/24 05:48:15;;;;;;;5.70;5.10;;;;;19.50;99491.00;;;;5077499;28;20040;-61
2023/06/24 05:50:42;;;;;;;7.45;5.85;;;;;19.70;99501.00;;;;5078516;28;20068;-63
2023/06/24 05:53:09;;;;;;;6.68;4.78;;;;;19.90;99495.00;;;;5078276;28;20075;-62
2023/06/24 05:55:35;;;;;;;6.68;4.88;;;;;20.00;99499.00;;;;5077024;28;20576;-62
2023/06/24 05:58:03;;;;;;;5.35;4.57;;;;;20.00;99507.00;;;;5080093;28;20045;-62
2023/06/24 06:00:29;;;;;;;7.57;4.90;;;;;20.00;99500.00;;;;5077021;28;20067;-61
2023/06/24 06:02:56;;;;;;;5.18;4.57;;;;;20.20;99506.00;;;;5079070;28;20036;-60
2023/06/24 06:05:23;;;;;;;10.82;9.18;;;;;20.30;99504.00;;;;5075784;28;20412;-60
2023/06/24 06:07:49;;;;;;;6.03;5.35;;;;;20.50;99508.00;;;;5074192;28;20036;-61
2023/06/24 06:10:17;;;;;;;8.18;6.72;;;;;20.60;99504.00;;;;5076409;28;20102;-62
2023/06/24 06:12:44;;;;;;;4.90;4.40;;;;;20.80;99507.00;;;;5074583;28;20049;-61
2023/06/24 06:15:11;;;;;;;6.28;5.20;;;;;20.80;99510.00;;;;5074262;28;20044;-61
2023/06/24 06:17:38;;;;;;;6.38;4.90;;;;;20.90;99515.00;;;;5075517;28;20067;-61
2023/06/24 06:20:05;;;;;;;5.95;5.05;;;;;21.00;99518.00;;;;5075805;28;20148;-61
2023/06/24 06:22:37;;;;;;;4.60;4.20;;;;;21.10;99511.00;;;;5076070;28;20101;-62
2023/06/24 06:25:05;;;;;;;6.55;4.88;;;;;21.20;99511.00;;;;5075924;28;20405;-62
2023/06/24 06:27:32;;;;;;;6.18;5.50;;;;;21.10;99509.00;;;;5077113;28;20048;-62
2023/06/24 06:29:58;;;;;;;4.63;4.20;;;;;21.10;99510.00;;;;5077033;28;20044;-62
2023/06/24 06:32:25;;;;;;;5.47;4.50;;;;;21.20;99510.00;;;;5077958;28;20040;-62
2023/06/24 06:34:52;;;;;;;4.90;4.05;;;;;21.30;99506.00;;;;5077090;28;20051;-62
2023/06/24 06:37:18;;;;;;;7.38;4.93;;;;;21.30;99507.00;;;;5076178;28;20101;-62
2023/06/24 06:39:45;;;;;;;6.40;4.90;;;;;21.40;99505.00;;;;5076848;28;20462;-62
2023/06/24 06:42:11;;;;;;;5.25;4.43;;;;;21.50;99512.00;;;;5080917;28;20100;-62
2023/06/24 06:44:38;;;;;;;5.43;4.70;;;;;21.50;99511.00;;;;5075635;28;20055;-63
2023/06/24 06:47:05;;;;;;;5.55;4.75;;;;;21.50;99513.00;;;;5070937;28;20050;-61
2023/06/24 06:49:32;;;;;;;6.15;4.18;;;;;21.50;99512.00;;;;5072648;28;20060;-61
2023/06/24 06:51:58;;;;;;;5.30;4.80;;;;;21.70;99506.00;;;;5072682;28;20055;-62
2023/06/24 06:54:25;;;;;;;5.38;4.63;;;;;21.80;99506.00;;;;5070587;28;20049;-62
2023/06/24 06:56:52;;;;;;;6.47;4.53;;;;;21.90;99503.00;;;;5071715;28;20120;-61
2023/06/24 06:59:18;;;;;;;6.50;5.00;;;;;21.90;99497.00;;;;5071434;28;20076;-61
2023/06/24 07:01:45;;;;;;;5.28;4.35;;;;;22.00;99496.00;;;;5075461;28;20044;-59
2023/06/24 07:04:12;;;;;;;6.45;5.45;;;;;22.10;99504.00;;;;5076007;28;20066;-58
2023/06/24 07:06:38;;;;;;;5.05;4.55;;;;;22.20;99503.00;;;;5075817;28;20040;-58
2023/06/24 07:09:05;;;;;;;5.22;3.80;;;;;22.20;99502.00;;;;5075275;28;20572;-58
2023/06/24 07:11:32;;;;;;;6.68;4.28;;;;;22.30;99503.00;;;;5075589;28;20508;-58
2023/06/24 07:13:58;;;;;;;6.07;4.22;;;;;22.40;99496.00;;;;5075634;28;20115;-60
2023/06/24 07:16:25;;;;;;;6.65;4.43;;;;;22.70;99507.00;;;;5075876;28;20037;-59
2023/06/24 07:18:51;;;;;;;6.55;5.00;;;;;22.80;99496.00;;;;5075223;28;20131;-62
2023/06/24 07:21:18;;;;;;;11.45;9.80;;;;;22.80;99492.00;;;;5075717;28;20127;-60
2023/06/24 07:23:45;;;;;;;6.93;6.22;;;;;22.90;99498.00;;;;5075664;28;20040;-60
2023/06/24 07:26:12;;;;;;;7.72;6.22;;;;;22.80;99496.00;;;;5075282;28;20051;-60
2023/06/24 07:28:39;;;;;;;7.45;6.20;;;;;22.90;99493.00;;;;5074969;28;20551;-59
2023/06/24 07:31:05;;;;;;;7.07;5.25;;;;;23.00;99487.00;;;;5075816;28;20051;-59
2023/06/24 07:33:32;;;;;;;6.07;4.65;;;;;23.20;99490.00;;;;5073897;28;20457;-59
2023/06/24 07:35:59;;;;;;;5.28;4.78;;;;;23.30;99489.00;;;;5075087;28;20044;-59
2023/06/24 07:38:25;;;;;;;4.72;4.28;;;;;23.50;99487.00;;;;5073755;28;20471;-59
2023/06/24 07:40:52;;;;;;;5.85;4.22;;;;;23.70;99490.00;;;;5075288;28;20037;-59
2023/06/24 07:43:18;;;;;;;6.65;4.70;;;;;23.80;99490.00;;;;5075474;28;20115;-60
2023/06/24 07:45:45;;;;;;;4.70;4.28;;;;;23.90;99491.00;;;;5074262;28;20047;-60
2023/06/24 07:48:12;;;;;;;5.57;4.50;;;;;24.00;99489.00;;;;5074242;28;20493;-60
2023/06/24 07:50:39;;;;;;;9.32;4.90;;;;;24.20;99495.00;;;;5074915;28;20489;-61
2023/06/24 07:53:06;;;;;;;4.75;4.15;;;;;24.20;99492.00;;;;5075155;28;20036;-60
2023/06/24 07:55:33;;;;;;;4.90;4.35;;;;;24.20;99491.00;;;;5073618;28;20493;-61
2023/06/24 07:58:00;;;;;;;11.05;5.60;;;;;24.30;99489.00;;;;5073607;28;20044;-60
2023/06/24 08:00:26;;;;;;;7.75;5.10;;;;;24.40;99493.00;;;;5073339;28;20047;-59
2023/06/24 08:02:55;;;;;;;6.68;4.70;;;;;24.30;99494.00;;;;5074706;28;20068;-60
2023/06/24 08:05:21;;;;;;;5.82;4.43;;;;;24.30;99483.00;;;;5074632;28;20041;-60
2023/06/24 08:07:48;;;;;;;5.32;4.28;;;;;24.40;99489.00;;;;5073126;28;20596;-60
2023/06/24 08:10:15;;;;;;;5.30;4.75;;;;;24.50;99493.00;;;;5074013;28;20064;-59
2023/06/24 08:12:41;;;;;;;5.63;4.70;;;;;24.50;99480.00;;;;5074250;28;20498;-59
2023/06/24 08:15:09;;;;;;;6.43;4.55;;;;;24.60;99484.00;;;;5074267;28;20047;-60
2023/06/24 08:17:36;;;;;;;6.63;4.85;;;;;24.60;99474.00;;;;5073258;28;20037;-60
2023/06/24 08:20:04;;;;;;;5.72;5.18;;;;;24.80;99484.00;;;;5073993;28;20048;-60
2023/06/24 08:22:30;;;;;;;7.57;4.72;;;;;25.00;99475.00;;;;5074301;28;20080;-59
2023/06/24 08:24:58;;;;;;;5.75;4.03;;;;;25.10;99483.00;;;;5073955;28;20045;-60
2023/06/24 08:27:25;;;;;;;5.90;4.32;;;;;25.30;99488.00;;;;5072689;28;20119;-59
2023/06/24 08:29:52;;;;;;;6.40;4.90;;;;;25.50;99479.00;;;;5073833;28;20032;-59
2023/06/24 08:32:19;;;;;;;4.10;3.70;;;;;25.50;99483.00;;;;5072856;28;20052;-60
2023/06/24 08:34:46;;;;;;;10.02;4.15;;;;;25.60;99472.00;;;;5073941;28;20044;-62
2023/06/24 08:37:13;;;;;;;4.30;3.78;;;;;25.70;99477.00;;;;5073799;28;20412;-62
2023/06/24 08:39:40;;;;;;;5.22;3.70;;;;;25.80;99469.00;;;;5073590;28;20563;-62
2023/06/24 08:42:06;;;;;;;4.20;3.47;;;;;25.80;99467.00;;;;5072546;28;20041;-60
2023/06/24 08:44:33;;;;;;;4.10;3.30;;;;;26.00;99469.00;;;;5073689;28;20051;-63
2023/06/24 08:47:00;;;;;;;4.60;3.40;;;;;26.10;99460.00;;;;5055665;28;20052;-62
2023/06/24 08:49:31;;;;;;;4.05;3.50;;;;;26.30;99471.00;;;;5072261;28;20119;-63
2023/06/24 08:52:07;;;;;;;4.43;3.55;;;;;26.30;99461.00;;;;5055863;28;20044;-63
2023/06/24 08:54:35;;;;;;;3.72;3.42;;;;;26.30;99468.00;;;;5072337;28;20409;-62
2023/06/24 08:57:05;;;;;;;3.90;3.38;;;;;26.20;99465.00;;;;5073201;28;20127;-61
2023/06/24 08:59:34;;;;;;;6.68;2.97;;;;;26.30;99458.00;;;;5072126;28;20433;-60
2023/06/24 09:02:01;;;;;;;4.55;3.30;;;;;26.40;99458.00;;;;5073606;28;20045;-62
2023/06/24 09:04:28;;;;;;;3.75;3.45;;;;;26.60;99465.00;;;;5072445;28;20066;-62
2023/06/24 09:06:55;;;;;;;4.30;3.53;;;;;26.60;99460.00;;;;5072472;28;20044;-62
2023/06/24 09:09:22;;;;;;;4.82;3.83;;;;;26.70;99463.00;;;;5071586;28;20509;-61
2023/06/24 09:11:54;;;;;;;6.22;3.72;;;;;26.80;99464.00;;;;5071926;28;20520;-61
2023/06/24 09:14:22;;;;;;;4.25;3.30;;;;;26.80;99466.00;;;;5072317;28;20055;-62
2023/06/24 09:16:56;;;;;;;4.93;3.75;;;;;26.70;99459.00;;;;5055107;28;20052;-61
2023/06/24 09:19:24;;;;;;;9.20;5.78;;;;;26.80;99461.00;;;;5073153;28;20041;-61
2023/06/24 09:21:54;;;;;;;4.38;3.58;;;;;27.00;99447.00;;;;5073147;28;20119;-62
2023/06/24 09:24:21;;;;;;;3.95;3.55;;;;;27.10;99439.00;;;;5071334;28;20049;-62
2023/06/24 09:26:47;;;;;;;4.30;3.80;;;;;27.10;99445.00;;;;5071447;28;20090;-62
2023/06/24 09:29:14;;;;;;;4.22;3.55;;;;;27.00;99436.00;;;;5071516;28;20509;-61
2023/06/24 09:31:48;;;;;;;3.63;3.33;;;;;27.10;99429.00;;;;5072042;28;20049;-61
2023/06/24 09:34:16;;;;;;;3.65;3.35;;;;;27.20;99441.00;;;;5073018;28;20044;-62
2023/06/24 09:36:52;;;;;;;4.05;3.65;;;;;27.40;99435.00;;;;5071352;28;20477;-62
2023/06/24 09:39:28;;;;;;;5.03;3.40;;;;;27.60;99432.00;;;;5054385;28;20398;-63
2023/06/24 09:42:01;;;;;;;4.80;3.90;;;;;27.80;99429.00;;;;5073257;28;20409;-61
2023/06/24 09:44:28;;;;;;;4.18;3.67;;;;;28.00;99426.00;;;;5071879;28;20494;-62
2023/06/24 09:46:56;;;;;;;3.95;3.55;;;;;28.10;99420.00;;;;5055736;28;20040;-61
2023/06/24 09:49:23;;;;;;;4.00;3.60;;;;;28.00;99423.00;;;;5071507;28;20045;-62
2023/06/24 09:51:55;;;;;;;4.47;3.53;;;;;28.20;99423.00;;;;5072537;28;20524;-62
2023/06/24 09:54:25;;;;;;;3.97;3.40;;;;;28.40;99415.00;;;;5072623;28;20139;-63
2023/06/24 09:56:53;;;;;;;4.28;3.88;;;;;28.70;99426.00;;;;5072515;28;20036;-62
2023/06/24 09:59:22;;;;;;;5.13;3.80;;;;;28.80;99420.00;;;;5070908;28;20045;-62
2023/06/24 10:01:51;;;;;;;6.03;3.90;;;;;28.70;99412.00;;;;5070946;28;20055;-60
2023/06/24 10:04:20;;;;;;;4.70;3.58;;;;;28.60;99410.00;;;;5070872;28;20045;-61
2023/06/24 10:06:47;;;;;;;4.93;3.75;;;;;28.70;99407.00;;;;5070732;28;20037;-61
2023/06/24 10:09:16;;;;;;;4.55;4.15;;;;;29.00;99406.00;;;;5071776;28;20051;-61
2023/06/24 10:11:47;;;;;;;4.07;3.40;;;;;29.20;99413.00;;;;5070967;28;20048;-61
2023/06/24 10:14:15;;;;;;;5.75;3.80;;;;;29.40;99413.00;;;;5072387;28;20494;-61
2023/06/24 10:16:43;;;;;;;3.85;3.33;;;;;29.30;99418.00;;;;5072606;28;20074;-61
2023/06/24 10:19:09;;;;;;;4.10;3.70;;;;;28.90;99415.00;;;;5071614;28;20094;-61
2023/06/24 10:21:59;;;;;;;3.35;3.05;;;;;28.60;99402.00;;;;5072148;28;20068;-61
2023/06/24 10:24:30;;;;;;;4.40;3.65;;;;;28.50;99401.00;;;;5071833;28;20489;-61
2023/06/24 10:27:04;;;;;;;3.78;3.47;;;;;28.70;99389.00;;;;5070488;28;20040;-60
2023/06/24 10:29:38;;;;;;;3.75;3.38;;;;;28.90;99390.00;;;;5071590;28;20048;-61
2023/06/24 10:32:06;;;;;;;3.50;3.00;;;;;29.10;99380.00;;;;5071115;28;20063;-61
2023/06/24 10:34:43;;;;;;;4.28;3.65;;;;;29.50;99378.00;;;;5071788;28;20047;-62
2023/06/24 10:37:21;;;;;;;5.43;3.40;;;;;29.50;99375.00;;;;5071683;28;20068;-61
2023/06/24 10:39:54;;;;;;;3.97;3.30;;;;;29.50;99376.00;;;;5072050;28;20045;-61
2023/06/24 10:42:43;;;;;;;5.18;3.40;;;;;29.50;99387.00;;;;5071229;28;20040;-61
2023/06/24 10:45:09;;;;;;;4.45;3.70;;;;;29.50;99378.00;;;;5072047;28;20413;-61
2023/06/24 10:47:44;;;;;;;4.15;3.75;;;;;29.50;99373.00;;;;5063224;28;20040;-61
2023/06/24 10:50:14;;;;;;;3.33;3.03;;;;;29.60;99374.00;;;;5078144;28;20112;-61
2023/06/24 10:52:43;;;;;;;4.80;3.67;;;;;29.80;99377.00;;;;5072815;28;20048;-61
2023/06/24 10:55:10;;;;;;;9.00;3.50;;;;;29.80;99370.00;;;;5072558;28;20045;-62
2023/06/24 10:57:36;;;;;;;3.50;3.20;;;;;29.80;99370.00;;;;5071811;28;20052;-62
2023/06/24 11:00:04;;;;;;;5.45;3.42;;;;;29.90;99359.00;;;;5070574;28;20140;-62
2023/06/24 11:02:30;;;;;;;4.05;3.65;;;;;29.70;99366.00;;;;5071479;28;20036;-62
2023/06/24 11:05:00;;;;;;;4.38;3.97;;;;;29.60;99360.00;;;;5071194;28;20045;-61
2023/06/24 11:07:30;;;;;;;3.58;3.28;;;;;29.70;99364.00;;;;5070991;28;20413;-60
2023/06/24 11:09:59;;;;;;;3.78;3.40;;;;;29.80;99355.00;;;;5072199;28;20044;-59
2023/06/24 11:12:27;;;;;;;4.32;3.83;;;;;30.10;99360.00;;;;5070862;28;20048;-59
2023/06/24 11:14:58;;;;;;;4.13;3.30;;;;;30.10;99357.00;;;;5072016;28;20048;-60
2023/06/24 11:17:25;;;;;;;4.05;3.38;;;;;30.30;99351.00;;;;5070271;28;20072;-62
2023/06/24 11:19:53;;;;;;;3.40;3.10;;;;;30.40;99353.00;;;;5071487;28;20043;-61
2023/06/24 11:22:20;;;;;;;3.63;3.33;;;;;30.50;99346.00;;;;5070631;28;20077;-61
2023/06/24 11:24:47;;;;;;;3.60;3.22;;;;;30.60;99338.00;;;;5071977;28;20067;-61
2023/06/24 11:27:14;;;;;;;5.60;3.45;;;;;30.70;99341.00;;;;5070392;28;20072;-61
2023/06/24 11:29:40;;;;;;;4.50;3.72;;;;;30.80;99341.00;;;;5070178;28;20068;-65
2023/06/24 11:32:08;;;;;;;3.60;3.30;;;;;30.70;99341.00;;;;5071998;28;20505;-62
2023/06/24 11:34:36;;;;;;;4.28;3.80;;;;;30.60;99339.00;;;;5071986;28;20040;-61
2023/06/24 11:37:13;;;;;;;5.13;3.70;;;;;30.90;99335.00;;;;5070554;28;20072;-62
2023/06/24 11:39:41;;;;;;;4.45;3.75;;;;;31.10;99335.00;;;;5070460;28;20494;-62
2023/06/24 11:42:08;;;;;;;5.07;3.47;;;;;31.10;99332.00;;;;5072352;28;20120;-63
2023/06/24 11:44:40;;;;;;;3.75;3.45;;;;;31.10;99330.00;;;;5071714;28;20123;-61
2023/06/24 11:47:08;;;;;;;3.67;3.38;;;;;31.20;99327.00;;;;5072694;28;20037;-61
2023/06/24 11:49:52;;;;;;;3.28;2.97;;;;;31.50;99333.00;;;;5074858;28;20147;-62
2023/06/24 11:52:19;;;;;;;3.70;3.40;;;;;31.60;99325.00;;;;5074643;28;20044;-61
2023/06/24 11:54:46;;;;;;;3.55;3.25;;;;;31.60;99324.00;;;;5073408;28;20048;-61
2023/06/24 11:57:13;;;;;;;5.28;3.88;;;;;31.50;99318.00;;;;5073500;28;20471;-62
2023/06/24 11:59:42;;;;;;;3.88;3.47;;;;;31.40;99323.00;;;;5057259;28;20144;-62
2023/06/24 12:02:13;;;;;;;3.83;3.47;;;;;31.20;99310.00;;;;5073540;28;20079;-62
2023/06/24 12:04:43;;;;;;;4.00;3.60;;;;;31.10;99309.00;;;;5074095;28;20076;-62
2023/06/24 12:07:10;;;;;;;4.00;3.35;;;;;31.10;99304.00;;;;5073210;28;20036;-64
2023/06/24 12:09:38;;;;;;;4.28;3.58;;;;;31.10;99307.00;;;;5073380;28;20055;-62
2023/06/24 12:12:06;;;;;;;4.70;3.90;;;;;31.30;99306.00;;;;5056918;28;20271;-63
2023/06/24 12:14:33;;;;;;;6.68;3.83;;;;;31.20;99309.00;;;;5074715;28;20040;-62
2023/06/24 12:16:59;;;;;;;4.72;3.55;;;;;31.20;99300.00;;;;5072872;28;20068;-63
2023/06/24 12:19:26;;;;;;;10.57;6.97;;;;;31.20;99304.00;;;;5072943;28;20083;-63
2023/06/24 12:21:53;;;;;;;4.40;3.95;;;;;31.30;99312.00;;;;5074581;28;20041;-62
2023/06/24 12:24:19;;;;;;;3.88;3.58;;;;;30.90;99296.00;;;;5074347;28;20055;-62
2023/06/24 12:26:46;;;;;;;3.72;3.42;;;;;30.60;99298.00;;;;5074419;28;20037;-62